sensor_id;sensor_type;location;lat;lon;timestamp;P1;P4;P2;P0;N10;N4;N25;N1;N05;TS
67700;SPS30;55380;54.156;18.708;2023-01-15T00:00:00;10.2;;10.2;9.6;;;;;;
67700;SPS30;55380;54.156;18.708;2023-01-15T00:02:00;10.4;;10.4;9.8;;;;;;
67700;SPS30;55380;54.156;18.708;2023-01-15T00:04:00;10.0;;9.9;9.4;;;;;;
67700;SPS30;55380;54.156;18.708;2023-01-15T00:06:00;10.2;;10.2;9.6;;;;;;
67700;SPS30;55380;54.156;18.708;2023-01-15T00:08:00;9.8;;9.7;9.1;;;;;;
67700;SPS30;55380;54.156;18.708;2023-01-15T00:10:00;9.9;;9.9;9.4;;;;;;
67700;SPS30;55380;54.156;18.708;2023-01-15T00:12:00;9.2;;9.2;8.7;;;;;;
67700;SPS30;55380;54.156;18.708;2023-01-15T00:14:00;9.5;;9.5;9.0;;;;;;
67700;SPS30;55380;54.156;18.708;2023-01-15T00:16:01;9.3;;9.3;8.8;;;;;;
67700;SPS30;55380;54.156;18.708;2023-01-15T00:18:00;9.5;;9.5;8.9;;;;;;
67700;SPS30;55380;54.156;18.708;2023-01-15T00:20:00;9.6;;9.6;9.0;;;;;;
67700;SPS30;55380;54.156;18.708;2023-01-15T00:22:00;9.2;;9.1;8.6;;;;;;
67700;SPS30;55380;54.156;18.708;2023-01-15T00:24:00;8.9;;8.9;8.4;;;;;;
67700;SPS30;55380;54.156;18.708;2023-01-15T00:26:00;9.6;;9.6;9.0;;;;;;
67700;SPS30;55380;54.156;18.708;2023-01-15T00:28:00;9.5;;9.5;9.0;;;;;;
67700;SPS30;55380;54.156;18.708;2023-01-15T00:30:00;9.1;;9.1;8.7;;;;;;
67700;SPS30;55380;54.156;18.708;2023-01-15T00:32:01;8.5;;8.5;8.0;;;;;;
67700;SPS30;55380;54.156;18.708;2023-01-15T00:34:00;9.3;;9.3;8.8;;;;;;
67700;SPS30;55380;54.156;18.708;2023-01-15T00:36:00;9.3;;9.3;8.8;;;;;;
67700;SPS30;55380;54.156;18.708;2023-01-15T00:38:00;9.0;;9.0;8.5;;;;;;
67700;SPS30;55380;54.156;18.708;2023-01-15T00:40:00;8.9;;8.9;8.4;;;;;;
67700;SPS30;55380;54.156;18.708;2023-01-15T00:42:00;9.1;;9.1;8.6;;;;;;
67700;SPS30;55380;54.156;18.708;2023-01-15T00:44:00;8.9;;8.9;8.4;;;;;;
67700;SPS30;55380;54.156;18.708;2023-01-15T00:46:00;8.2;;8.2;7.8;;;;;;
67700;SPS30;55380;54.156;18.708;2023-01-15T00:48:00;8.6;;8.6;8.1;;;;;;
67700;SPS30;55380;54.156;18.708;2023-01-15T00:50:00;8.1;;8.1;7.7;;;;;;
67700;SPS30;55380;54.156;18.708;2023-01-15T00:52:00;7.9;;7.9;7.5;;;;;;
67700;SPS30;55380;54.156;18.708;2023-01-15T00:54:00;8.5;;8.5;8.1;;;;;;
67700;SPS30;55380;54.156;18.708;2023-01-15T00:56:00;8.8;;8.8;8.3;;;;;;
67700;SPS30;55380;54.156;18.708;2023-01-15T00:58:00;8.2;;8.2;7.7;;;;;;
67700;SPS30;55380;54.156;18.708;2023-01-15T01:00:00;8.2;;8.2;7.7;;;;;;
67700;SPS30;55380;54.156;18.708;2023-01-15T01:02:00;7.5;;7.5;7.1;;;;;;
67700;SPS30;55380;54.156;18.708;2023-01-15T01:04:00;8.0;;8.0;7.5;;;;;;
67700;SPS30;55380;54.156;18.708;2023-01-15T01:06:00;7.9;;7.9;7.5;;;;;;
67700;SPS30;55380;54.156;18.708;2023-01-15T01:08:00;7.8;;7.8;7.3;;;;;;
67700;SPS30;55380;54.156;18.708;2023-01-15T01:10:00;7.5;;7.5;7.1;;;;;;
67700;SPS30;55380;54.156;18.708;2023-01-15T01:12:00;8.1;;8.1;7.7;;;;;;
67700;SPS30;55380;54.156;18.708;2023-01-15T01:14:00;7.7;;7.7;7.3;;;;;;
67700;SPS30;55380;54.156;18.708;2023-01-15T01:16:00;7.5;;7.5;7.0;;;;;;
67700;SPS30;55380;54.156;18.708;2023-01-15T01:18:00;7.6;;7.6;7.2;;;;;;
67700;SPS30;55380;54.156;18.708;2023-01-15T01:20:00;7.5;;7.5;7.1;;;;;;
67700;SPS30;55380;54.156;18.708;2023-01-15T01:22:00;7.2;;7.2;6.8;;;;;;
67700;SPS30;55380;54.156;18.708;2023-01-15T01:24:00;7.3;;7.3;6.9;;;;;;
67700;SPS30;55380;54.156;18.708;2023-01-15T01:26:00;7.0;;7.0;6.6;;;;;;
67700;SPS30;55380;54.156;18.708;2023-01-15T01:28:00;7.6;;7.5;7.1;;;;;;
67700;SPS30;55380;54.156;18.708;2023-01-15T01:30:00;6.7;;6.6;6.2;;;;;;
67700;SPS30;55380;54.156;18.708;2023-01-15T01:32:00;6.7;;6.7;6.3;;;;;;
67700;SPS30;55380;54.156;18.708;2023-01-15T01:34:00;6.6;;6.6;6.2;;;;;;
67700;SPS30;55380;54.156;18.708;2023-01-15T01:36:00;6.3;;6.3;6.0;;;;;;
67700;SPS30;55380;54.156;18.708;2023-01-15T01:38:00;6.3;;6.3;5.9;;;;;;
67700;SPS30;55380;54.156;18.708;2023-01-15T01:40:00;6.6;;6.6;6.2;;;;;;
67700;SPS30;55380;54.156;18.708;2023-01-15T01:42:00;5.9;;5.9;5.6;;;;;;
67700;SPS30;55380;54.156;18.708;2023-01-15T01:44:01;5.7;;5.7;5.4;;;;;;
67700;SPS30;55380;54.156;18.708;2023-01-15T01:46:00;5.6;;5.6;5.2;;;;;;
67700;SPS30;55380;54.156;18.708;2023-01-15T01:48:01;5.7;;5.7;5.4;;;;;;
67700;SPS30;55380;54.156;18.708;2023-01-15T01:50:02;5.7;;5.7;5.4;;;;;;
67700;SPS30;55380;54.156;18.708;2023-01-15T01:52:01;5.8;;5.8;5.5;;;;;;
67700;SPS30;55380;54.156;18.708;2023-01-15T01:54:00;5.8;;5.8;5.5;;;;;;
67700;SPS30;55380;54.156;18.708;2023-01-15T01:56:00;5.3;;5.3;5.1;;;;;;
67700;SPS30;55380;54.156;18.708;2023-01-15T01:58:00;5.4;;5.4;5.1;;;;;;
67700;SPS30;55380;54.156;18.708;2023-01-15T02:00:00;5.2;;5.2;4.9;;;;;;
67700;SPS30;55380;54.156;18.708;2023-01-15T02:02:00;5.0;;5.0;4.8;;;;;;
67700;SPS30;55380;54.156;18.708;2023-01-15T02:04:00;4.8;;4.8;4.6;;;;;;
67700;SPS30;55380;54.156;18.708;2023-01-15T02:06:00;5.3;;5.3;5.0;;;;;;
67700;SPS30;55380;54.156;18.708;2023-01-15T02:08:00;5.0;;5.0;4.7;;;;;;
67700;SPS30;55380;54.156;18.708;2023-01-15T02:10:00;4.7;;4.7;4.5;;;;;;
67700;SPS30;55380;54.156;18.708;2023-01-15T02:12:08;4.9;;4.9;4.6;;;;;;
67700;SPS30;55380;54.156;18.708;2023-01-15T02:14:02;4.5;;4.5;4.2;;;;;;
67700;SPS30;55380;54.156;18.708;2023-01-15T02:16:02;4.5;;4.5;4.3;;;;;;
67700;SPS30;55380;54.156;18.708;2023-01-15T02:18:03;5.0;;4.9;4.6;;;;;;
67700;SPS30;55380;54.156;18.708;2023-01-15T02:20:04;4.9;;4.9;4.6;;;;;;
67700;SPS30;55380;54.156;18.708;2023-01-15T02:22:03;4.5;;4.5;4.3;;;;;;
67700;SPS30;55380;54.156;18.708;2023-01-15T02:24:02;5.0;;5.0;4.7;;;;;;
67700;SPS30;55380;54.156;18.708;2023-01-15T02:26:03;4.1;;4.1;3.9;;;;;;
67700;SPS30;55380;54.156;18.708;2023-01-15T02:28:01;4.2;;4.2;4.0;;;;;;
67700;SPS30;55380;54.156;18.708;2023-01-15T02:30:01;4.7;;4.7;4.5;;;;;;
67700;SPS30;55380;54.156;18.708;2023-01-15T02:32:02;4.5;;4.5;4.2;;;;;;
67700;SPS30;55380;54.156;18.708;2023-01-15T02:34:01;4.3;;4.3;4.1;;;;;;
67700;SPS30;55380;54.156;18.708;2023-01-15T02:36:00;4.4;;4.4;4.1;;;;;;
67700;SPS30;55380;54.156;18.708;2023-01-15T02:38:01;4.4;;4.3;4.0;;;;;;
67700;SPS30;55380;54.156;18.708;2023-01-15T02:40:00;4.5;;4.5;4.2;;;;;;
67700;SPS30;55380;54.156;18.708;2023-01-15T02:42:01;4.2;;4.2;4.0;;;;;;
67700;SPS30;55380;54.156;18.708;2023-01-15T02:44:00;4.3;;4.3;4.1;;;;;;
67700;SPS30;55380;54.156;18.708;2023-01-15T02:46:00;4.2;;4.2;3.9;;;;;;
67700;SPS30;55380;54.156;18.708;2023-01-15T02:48:01;4.1;;4.1;3.9;;;;;;
67700;SPS30;55380;54.156;18.708;2023-01-15T02:50:01;4.2;;4.2;3.8;;;;;;
67700;SPS30;55380;54.156;18.708;2023-01-15T02:52:01;3.7;;3.7;3.4;;;;;;
67700;SPS30;55380;54.156;18.708;2023-01-15T02:54:00;3.9;;3.9;3.7;;;;;;
67700;SPS30;55380;54.156;18.708;2023-01-15T02:56:01;4.0;;4.0;3.8;;;;;;
67700;SPS30;55380;54.156;18.708;2023-01-15T02:58:01;4.0;;4.0;3.8;;;;;;
67700;SPS30;55380;54.156;18.708;2023-01-15T03:00:00;4.1;;4.0;3.8;;;;;;
67700;SPS30;55380;54.156;18.708;2023-01-15T03:02:01;4.1;;4.1;3.9;;;;;;
67700;SPS30;55380;54.156;18.708;2023-01-15T03:04:04;4.1;;4.1;3.9;;;;;;
67700;SPS30;55380;54.156;18.708;2023-01-15T03:06:02;3.9;;3.9;3.7;;;;;;
67700;SPS30;55380;54.156;18.708;2023-01-15T03:08:00;3.8;;3.8;3.5;;;;;;
67700;SPS30;55380;54.156;18.708;2023-01-15T03:10:00;4.3;;4.1;3.8;;;;;;
67700;SPS30;55380;54.156;18.708;2023-01-15T03:12:02;4.0;;3.8;3.5;;;;;;
67700;SPS30;55380;54.156;18.708;2023-01-15T03:14:01;3.9;;3.8;3.5;;;;;;
67700;SPS30;55380;54.156;18.708;2023-01-15T03:16:01;3.5;;3.5;3.2;;;;;;
67700;SPS30;55380;54.156;18.708;2023-01-15T03:18:00;3.4;;3.4;3.2;;;;;;
67700;SPS30;55380;54.156;18.708;2023-01-15T03:20:02;3.5;;3.5;3.3;;;;;;
67700;SPS30;55380;54.156;18.708;2023-01-15T03:22:02;3.5;;3.5;3.3;;;;;;
67700;SPS30;55380;54.156;18.708;2023-01-15T03:24:00;3.6;;3.6;3.4;;;;;;
67700;SPS30;55380;54.156;18.708;2023-01-15T03:26:00;3.5;;3.5;3.3;;;;;;
67700;SPS30;55380;54.156;18.708;2023-01-15T03:28:00;3.2;;3.2;3.1;;;;;;
67700;SPS30;55380;54.156;18.708;2023-01-15T03:30:03;3.5;;3.5;3.3;;;;;;
67700;SPS30;55380;54.156;18.708;2023-01-15T03:32:00;3.4;;3.3;3.1;;;;;;
67700;SPS30;55380;54.156;18.708;2023-01-15T03:34:00;3.0;;3.0;2.8;;;;;;
67700;SPS30;55380;54.156;18.708;2023-01-15T03:36:00;3.2;;3.1;2.8;;;;;;
67700;SPS30;55380;54.156;18.708;2023-01-15T03:38:00;3.4;;3.3;3.0;;;;;;
67700;SPS30;55380;54.156;18.708;2023-01-15T03:40:00;3.3;;3.2;2.9;;;;;;
67700;SPS30;55380;54.156;18.708;2023-01-15T03:42:03;3.2;;3.2;3.0;;;;;;
67700;SPS30;55380;54.156;18.708;2023-01-15T03:44:01;3.2;;3.2;3.1;;;;;;
67700;SPS30;55380;54.156;18.708;2023-01-15T03:46:01;3.2;;3.2;3.1;;;;;;
67700;SPS30;55380;54.156;18.708;2023-01-15T03:48:00;2.9;;2.9;2.7;;;;;;
67700;SPS30;55380;54.156;18.708;2023-01-15T03:50:02;3.3;;3.3;3.1;;;;;;
67700;SPS30;55380;54.156;18.708;2023-01-15T03:52:00;2.9;;2.9;2.7;;;;;;
67700;SPS30;55380;54.156;18.708;2023-01-15T03:54:00;3.0;;3.0;2.8;;;;;;
67700;SPS30;55380;54.156;18.708;2023-01-15T03:56:01;2.8;;2.8;2.6;;;;;;
67700;SPS30;55380;54.156;18.708;2023-01-15T03:58:01;3.0;;3.0;2.8;;;;;;
67700;SPS30;55380;54.156;18.708;2023-01-15T04:00:02;2.9;;2.9;2.8;;;;;;
67700;SPS30;55380;54.156;18.708;2023-01-15T04:02:00;3.0;;3.0;2.8;;;;;;
67700;SPS30;55380;54.156;18.708;2023-01-15T04:04:00;2.6;;2.6;2.5;;;;;;
67700;SPS30;55380;54.156;18.708;2023-01-15T04:06:00;2.8;;2.8;2.7;;;;;;
67700;SPS30;55380;54.156;18.708;2023-01-15T04:08:00;2.9;;2.9;2.7;;;;;;
67700;SPS30;55380;54.156;18.708;2023-01-15T04:10:00;3.0;;3.0;2.7;;;;;;
67700;SPS30;55380;54.156;18.708;2023-01-15T04:12:00;3.1;;3.1;2.9;;;;;;
67700;SPS30;55380;54.156;18.708;2023-01-15T04:14:00;3.1;;3.1;2.9;;;;;;
67700;SPS30;55380;54.156;18.708;2023-01-15T04:16:00;3.2;;3.2;3.0;;;;;;
67700;SPS30;55380;54.156;18.708;2023-01-15T04:18:00;3.3;;3.3;3.1;;;;;;
67700;SPS30;55380;54.156;18.708;2023-01-15T04:20:00;3.2;;3.2;3.0;;;;;;
67700;SPS30;55380;54.156;18.708;2023-01-15T04:22:00;3.0;;3.0;2.8;;;;;;
67700;SPS30;55380;54.156;18.708;2023-01-15T04:24:00;2.7;;2.7;2.5;;;;;;
67700;SPS30;55380;54.156;18.708;2023-01-15T04:26:00;2.8;;2.8;2.6;;;;;;
67700;SPS30;55380;54.156;18.708;2023-01-15T04:28:00;3.0;;3.0;2.8;;;;;;
67700;SPS30;55380;54.156;18.708;2023-01-15T04:30:00;2.9;;2.8;2.6;;;;;;
67700;SPS30;55380;54.156;18.708;2023-01-15T04:32:00;2.8;;2.8;2.5;;;;;;
67700;SPS30;55380;54.156;18.708;2023-01-15T04:34:00;2.9;;2.8;2.5;;;;;;
67700;SPS30;55380;54.156;18.708;2023-01-15T04:36:00;2.7;;2.7;2.4;;;;;;
67700;SPS30;55380;54.156;18.708;2023-01-15T04:38:00;2.7;;2.7;2.6;;;;;;
67700;SPS30;55380;54.156;18.708;2023-01-15T04:40:00;2.6;;2.6;2.4;;;;;;
67700;SPS30;55380;54.156;18.708;2023-01-15T04:42:00;2.6;;2.6;2.4;;;;;;
67700;SPS30;55380;54.156;18.708;2023-01-15T04:44:00;2.7;;2.7;2.5;;;;;;
67700;SPS30;55380;54.156;18.708;2023-01-15T04:46:00;2.7;;2.7;2.5;;;;;;
67700;SPS30;55380;54.156;18.708;2023-01-15T04:48:00;2.6;;2.6;2.4;;;;;;
67700;SPS30;55380;54.156;18.708;2023-01-15T04:50:00;2.7;;2.7;2.5;;;;;;
67700;SPS30;55380;54.156;18.708;2023-01-15T04:52:00;2.9;;2.8;2.7;;;;;;
67700;SPS30;55380;54.156;18.708;2023-01-15T04:54:00;3.0;;2.9;2.7;;;;;;
67700;SPS30;55380;54.156;18.708;2023-01-15T04:56:00;2.8;;2.7;2.4;;;;;;
67700;SPS30;55380;54.156;18.708;2023-01-15T04:58:00;3.0;;2.9;2.6;;;;;;
67700;SPS30;55380;54.156;18.708;2023-01-15T05:00:00;2.8;;2.7;2.5;;;;;;
67700;SPS30;55380;54.156;18.708;2023-01-15T05:02:00;2.7;;2.7;2.4;;;;;;
67700;SPS30;55380;54.156;18.708;2023-01-15T05:04:00;2.6;;2.6;2.4;;;;;;
67700;SPS30;55380;54.156;18.708;2023-01-15T05:06:00;2.7;;2.6;2.4;;;;;;
67700;SPS30;55380;54.156;18.708;2023-01-15T05:08:00;2.6;;2.5;2.3;;;;;;
67700;SPS30;55380;54.156;18.708;2023-01-15T05:10:00;2.4;;2.4;2.2;;;;;;
67700;SPS30;55380;54.156;18.708;2023-01-15T05:12:00;2.5;;2.5;2.3;;;;;;
67700;SPS30;55380;54.156;18.708;2023-01-15T05:14:00;2.4;;2.4;2.3;;;;;;
67700;SPS30;55380;54.156;18.708;2023-01-15T05:18:00;2.7;;2.7;2.6;;;;;;
67700;SPS30;55380;54.156;18.708;2023-01-15T05:20:00;2.8;;2.8;2.6;;;;;;
67700;SPS30;55380;54.156;18.708;2023-01-15T05:22:00;2.7;;2.7;2.5;;;;;;
67700;SPS30;55380;54.156;18.708;2023-01-15T05:24:01;2.5;;2.5;2.4;;;;;;
67700;SPS30;55380;54.156;18.708;2023-01-15T05:26:02;2.5;;2.5;2.3;;;;;;
67700;SPS30;55380;54.156;18.708;2023-01-15T05:28:00;2.5;;2.5;2.4;;;;;;
67700;SPS30;55380;54.156;18.708;2023-01-15T05:30:00;2.7;;2.7;2.5;;;;;;
67700;SPS30;55380;54.156;18.708;2023-01-15T05:32:00;2.7;;2.7;2.6;;;;;;
67700;SPS30;55380;54.156;18.708;2023-01-15T05:34:00;2.7;;2.7;2.6;;;;;;
67700;SPS30;55380;54.156;18.708;2023-01-15T05:36:00;2.5;;2.5;2.3;;;;;;
67700;SPS30;55380;54.156;18.708;2023-01-15T05:38:00;2.3;;2.3;2.2;;;;;;
67700;SPS30;55380;54.156;18.708;2023-01-15T05:40:00;2.5;;2.5;2.3;;;;;;
67700;SPS30;55380;54.156;18.708;2023-01-15T05:42:00;2.5;;2.5;2.4;;;;;;
67700;SPS30;55380;54.156;18.708;2023-01-15T05:44:01;2.7;;2.7;2.5;;;;;;
67700;SPS30;55380;54.156;18.708;2023-01-15T05:46:00;2.7;;2.7;2.5;;;;;;
67700;SPS30;55380;54.156;18.708;2023-01-15T05:48:00;2.8;;2.8;2.6;;;;;;
67700;SPS30;55380;54.156;18.708;2023-01-15T05:50:00;2.8;;2.8;2.7;;;;;;
67700;SPS30;55380;54.156;18.708;2023-01-15T05:52:00;2.7;;2.7;2.6;;;;;;
67700;SPS30;55380;54.156;18.708;2023-01-15T05:54:00;3.0;;3.0;2.8;;;;;;
67700;SPS30;55380;54.156;18.708;2023-01-15T05:56:00;2.6;;2.6;2.5;;;;;;
67700;SPS30;55380;54.156;18.708;2023-01-15T05:58:00;2.8;;2.8;2.7;;;;;;
67700;SPS30;55380;54.156;18.708;2023-01-15T06:00:00;2.6;;2.6;2.4;;;;;;
67700;SPS30;55380;54.156;18.708;2023-01-15T06:02:00;2.3;;2.3;2.2;;;;;;
67700;SPS30;55380;54.156;18.708;2023-01-15T06:04:00;2.5;;2.5;2.4;;;;;;
67700;SPS30;55380;54.156;18.708;2023-01-15T06:06:00;2.4;;2.4;2.3;;;;;;
67700;SPS30;55380;54.156;18.708;2023-01-15T06:08:00;2.5;;2.5;2.4;;;;;;
67700;SPS30;55380;54.156;18.708;2023-01-15T06:10:00;2.7;;2.7;2.5;;;;;;
67700;SPS30;55380;54.156;18.708;2023-01-15T06:12:00;2.5;;2.5;2.4;;;;;;
67700;SPS30;55380;54.156;18.708;2023-01-15T06:14:00;2.7;;2.7;2.5;;;;;;
67700;SPS30;55380;54.156;18.708;2023-01-15T06:16:00;2.7;;2.7;2.6;;;;;;
67700;SPS30;55380;54.156;18.708;2023-01-15T06:18:00;2.6;;2.6;2.5;;;;;;
67700;SPS30;55380;54.156;18.708;2023-01-15T06:20:00;2.7;;2.7;2.5;;;;;;
67700;SPS30;55380;54.156;18.708;2023-01-15T06:22:00;2.7;;2.7;2.5;;;;;;
67700;SPS30;55380;54.156;18.708;2023-01-15T06:24:01;2.4;;2.4;2.3;;;;;;
67700;SPS30;55380;54.156;18.708;2023-01-15T06:26:00;2.8;;2.8;2.6;;;;;;
67700;SPS30;55380;54.156;18.708;2023-01-15T06:28:00;2.6;;2.6;2.4;;;;;;
67700;SPS30;55380;54.156;18.708;2023-01-15T06:30:00;3.0;;3.0;2.8;;;;;;
67700;SPS30;55380;54.156;18.708;2023-01-15T06:32:00;2.9;;2.9;2.7;;;;;;
67700;SPS30;55380;54.156;18.708;2023-01-15T06:34:00;3.2;;3.2;3.1;;;;;;
67700;SPS30;55380;54.156;18.708;2023-01-15T06:36:02;2.9;;2.9;2.8;;;;;;
67700;SPS30;55380;54.156;18.708;2023-01-15T06:38:00;3.1;;3.1;3.0;;;;;;
67700;SPS30;55380;54.156;18.708;2023-01-15T06:40:00;2.8;;2.8;2.7;;;;;;
67700;SPS30;55380;54.156;18.708;2023-01-15T06:42:00;2.8;;2.8;2.7;;;;;;
67700;SPS30;55380;54.156;18.708;2023-01-15T06:44:00;2.7;;2.7;2.5;;;;;;
67700;SPS30;55380;54.156;18.708;2023-01-15T06:46:00;2.7;;2.7;2.6;;;;;;
67700;SPS30;55380;54.156;18.708;2023-01-15T06:48:00;2.7;;2.7;2.6;;;;;;
67700;SPS30;55380;54.156;18.708;2023-01-15T06:50:00;2.8;;2.8;2.6;;;;;;
67700;SPS30;55380;54.156;18.708;2023-01-15T06:52:00;2.8;;2.8;2.7;;;;;;
67700;SPS30;55380;54.156;18.708;2023-01-15T06:54:00;2.8;;2.8;2.6;;;;;;
67700;SPS30;55380;54.156;18.708;2023-01-15T06:56:00;2.7;;2.7;2.5;;;;;;
67700;SPS30;55380;54.156;18.708;2023-01-15T06:58:01;2.8;;2.8;2.6;;;;;;
67700;SPS30;55380;54.156;18.708;2023-01-15T07:00:00;2.6;;2.6;2.5;;;;;;
67700;SPS30;55380;54.156;18.708;2023-01-15T07:02:00;2.6;;2.6;2.4;;;;;;
67700;SPS30;55380;54.156;18.708;2023-01-15T07:04:00;2.4;;2.4;2.3;;;;;;
67700;SPS30;55380;54.156;18.708;2023-01-15T07:06:03;2.6;;2.6;2.4;;;;;;
67700;SPS30;55380;54.156;18.708;2023-01-15T07:08:00;2.6;;2.6;2.5;;;;;;
67700;SPS30;55380;54.156;18.708;2023-01-15T07:10:00;2.7;;2.7;2.5;;;;;;
67700;SPS30;55380;54.156;18.708;2023-01-15T07:12:00;2.2;;2.2;2.1;;;;;;
67700;SPS30;55380;54.156;18.708;2023-01-15T07:14:00;2.3;;2.3;2.2;;;;;;
67700;SPS30;55380;54.156;18.708;2023-01-15T07:16:00;2.4;;2.4;2.3;;;;;;
67700;SPS30;55380;54.156;18.708;2023-01-15T07:18:00;2.4;;2.4;2.3;;;;;;
67700;SPS30;55380;54.156;18.708;2023-01-15T07:20:00;2.5;;2.5;2.4;;;;;;
67700;SPS30;55380;54.156;18.708;2023-01-15T07:22:00;2.6;;2.6;2.4;;;;;;
67700;SPS30;55380;54.156;18.708;2023-01-15T07:24:00;2.6;;2.6;2.5;;;;;;
67700;SPS30;55380;54.156;18.708;2023-01-15T07:26:00;2.5;;2.5;2.4;;;;;;
67700;SPS30;55380;54.156;18.708;2023-01-15T07:28:00;2.4;;2.4;2.3;;;;;;
67700;SPS30;55380;54.156;18.708;2023-01-15T07:30:00;2.4;;2.4;2.3;;;;;;
67700;SPS30;55380;54.156;18.708;2023-01-15T07:32:00;2.5;;2.5;2.4;;;;;;
67700;SPS30;55380;54.156;18.708;2023-01-15T07:34:00;2.4;;2.4;2.3;;;;;;
67700;SPS30;55380;54.156;18.708;2023-01-15T07:36:01;2.8;;2.8;2.7;;;;;;
67700;SPS30;55380;54.156;18.708;2023-01-15T07:38:00;2.7;;2.7;2.6;;;;;;
67700;SPS30;55380;54.156;18.708;2023-01-15T07:40:00;2.7;;2.7;2.6;;;;;;
67700;SPS30;55380;54.156;18.708;2023-01-15T07:42:00;2.7;;2.7;2.6;;;;;;
67700;SPS30;55380;54.156;18.708;2023-01-15T07:44:00;2.8;;2.8;2.6;;;;;;
67700;SPS30;55380;54.156;18.708;2023-01-15T07:46:00;2.9;;2.9;2.7;;;;;;
67700;SPS30;55380;54.156;18.708;2023-01-15T07:48:00;2.9;;2.9;2.8;;;;;;
67700;SPS30;55380;54.156;18.708;2023-01-15T07:50:00;3.0;;3.0;2.9;;;;;;
67700;SPS30;55380;54.156;18.708;2023-01-15T07:52:00;3.7;;3.7;3.5;;;;;;
67700;SPS30;55380;54.156;18.708;2023-01-15T07:54:00;3.0;;3.0;2.8;;;;;;
67700;SPS30;55380;54.156;18.708;2023-01-15T07:56:00;3.4;;3.4;3.2;;;;;;
67700;SPS30;55380;54.156;18.708;2023-01-15T07:58:01;3.4;;3.4;3.2;;;;;;
67700;SPS30;55380;54.156;18.708;2023-01-15T08:00:00;3.4;;3.4;3.2;;;;;;
67700;SPS30;55380;54.156;18.708;2023-01-15T08:02:00;3.4;;3.4;3.2;;;;;;
67700;SPS30;55380;54.156;18.708;2023-01-15T08:04:00;3.9;;3.9;3.7;;;;;;
67700;SPS30;55380;54.156;18.708;2023-01-15T08:06:00;3.8;;3.8;3.6;;;;;;
67700;SPS30;55380;54.156;18.708;2023-01-15T08:08:00;3.3;;3.3;3.1;;;;;;
67700;SPS30;55380;54.156;18.708;2023-01-15T08:10:00;3.2;;3.2;3.0;;;;;;
67700;SPS30;55380;54.156;18.708;2023-01-15T08:12:01;3.1;;3.1;3.0;;;;;;
67700;SPS30;55380;54.156;18.708;2023-01-15T08:14:00;2.9;;2.9;2.7;;;;;;
67700;SPS30;55380;54.156;18.708;2023-01-15T08:16:00;3.0;;3.0;2.8;;;;;;
67700;SPS30;55380;54.156;18.708;2023-01-15T08:18:00;2.6;;2.6;2.4;;;;;;
67700;SPS30;55380;54.156;18.708;2023-01-15T08:20:00;2.9;;2.9;2.7;;;;;;
67700;SPS30;55380;54.156;18.708;2023-01-15T08:22:00;2.7;;2.7;2.6;;;;;;
67700;SPS30;55380;54.156;18.708;2023-01-15T08:24:00;2.7;;2.7;2.5;;;;;;
67700;SPS30;55380;54.156;18.708;2023-01-15T08:26:00;2.5;;2.5;2.3;;;;;;
67700;SPS30;55380;54.156;18.708;2023-01-15T08:28:00;2.5;;2.5;2.4;;;;;;
67700;SPS30;55380;54.156;18.708;2023-01-15T08:30:00;2.8;;2.8;2.6;;;;;;
67700;SPS30;55380;54.156;18.708;2023-01-15T08:32:00;3.0;;3.0;2.9;;;;;;
67700;SPS30;55380;54.156;18.708;2023-01-15T08:34:00;2.8;;2.8;2.6;;;;;;
67700;SPS30;55380;54.156;18.708;2023-01-15T08:36:00;3.2;;3.2;3.0;;;;;;
67700;SPS30;55380;54.156;18.708;2023-01-15T08:38:02;2.9;;2.9;2.8;;;;;;
67700;SPS30;55380;54.156;18.708;2023-01-15T08:40:00;2.8;;2.8;2.6;;;;;;
67700;SPS30;55380;54.156;18.708;2023-01-15T08:42:00;2.5;;2.5;2.4;;;;;;
67700;SPS30;55380;54.156;18.708;2023-01-15T08:44:00;2.7;;2.7;2.6;;;;;;
67700;SPS30;55380;54.156;18.708;2023-01-15T08:46:01;3.0;;3.0;2.8;;;;;;
67700;SPS30;55380;54.156;18.708;2023-01-15T08:48:00;2.7;;2.7;2.6;;;;;;
67700;SPS30;55380;54.156;18.708;2023-01-15T08:50:00;3.2;;3.2;3.1;;;;;;
67700;SPS30;55380;54.156;18.708;2023-01-15T08:52:00;3.5;;3.5;3.3;;;;;;
67700;SPS30;55380;54.156;18.708;2023-01-15T08:54:00;3.4;;3.4;3.2;;;;;;
67700;SPS30;55380;54.156;18.708;2023-01-15T08:56:00;3.1;;3.1;2.9;;;;;;
67700;SPS30;55380;54.156;18.708;2023-01-15T08:58:00;2.7;;2.7;2.6;;;;;;
67700;SPS30;55380;54.156;18.708;2023-01-15T09:00:00;2.7;;2.7;2.6;;;;;;
67700;SPS30;55380;54.156;18.708;2023-01-15T09:02:00;6.2;;6.2;5.9;;;;;;
67700;SPS30;55380;54.156;18.708;2023-01-15T09:04:00;18.2;;18.1;17.0;;;;;;
67700;SPS30;55380;54.156;18.708;2023-01-15T09:06:00;16.9;;16.2;14.6;;;;;;
67700;SPS30;55380;54.156;18.708;2023-01-15T09:08:00;3.1;;2.9;2.6;;;;;;
67700;SPS30;55380;54.156;18.708;2023-01-15T09:10:00;2.3;;2.2;1.9;;;;;;
67700;SPS30;55380;54.156;18.708;2023-01-15T09:12:00;1.5;;1.5;1.3;;;;;;
67700;SPS30;55380;54.156;18.708;2023-01-15T09:14:00;34.5;;31.2;26.2;;;;;;
67700;SPS30;55380;54.156;18.708;2023-01-15T09:16:00;6.8;;6.0;4.8;;;;;;
67700;SPS30;55380;54.156;18.708;2023-01-15T09:18:00;1.5;;1.4;1.2;;;;;;
67700;SPS30;55380;54.156;18.708;2023-01-15T09:20:00;6.5;;6.2;5.5;;;;;;
67700;SPS30;55380;54.156;18.708;2023-01-15T09:22:00;2.4;;2.4;2.2;;;;;;
67700;SPS30;55380;54.156;18.708;2023-01-15T09:24:00;2.4;;2.4;2.3;;;;;;
67700;SPS30;55380;54.156;18.708;2023-01-15T09:26:01;2.1;;2.1;2.0;;;;;;
67700;SPS30;55380;54.156;18.708;2023-01-15T09:28:00;2.8;;2.8;2.7;;;;;;
67700;SPS30;55380;54.156;18.708;2023-01-15T09:30:00;3.5;;3.5;3.3;;;;;;
67700;SPS30;55380;54.156;18.708;2023-01-15T09:32:00;1.8;;1.8;1.7;;;;;;
67700;SPS30;55380;54.156;18.708;2023-01-15T09:34:00;1.5;;1.5;1.5;;;;;;
67700;SPS30;55380;54.156;18.708;2023-01-15T09:38:00;0.7;;0.7;0.7;;;;;;
67700;SPS30;55380;54.156;18.708;2023-01-15T09:40:00;1.4;;1.4;1.3;;;;;;
67700;SPS30;55380;54.156;18.708;2023-01-15T09:42:05;3.2;;3.2;3.0;;;;;;
67700;SPS30;55380;54.156;18.708;2023-01-15T09:44:03;2.4;;2.4;2.3;;;;;;
67700;SPS30;55380;54.156;18.708;2023-01-15T09:46:00;3.1;;3.1;2.9;;;;;;
67700;SPS30;55380;54.156;18.708;2023-01-15T09:48:03;2.6;;2.6;2.5;;;;;;
67700;SPS30;55380;54.156;18.708;2023-01-15T09:50:03;1.5;;1.5;1.4;;;;;;
67700;SPS30;55380;54.156;18.708;2023-01-15T09:52:02;1.1;;1.1;1.1;;;;;;
67700;SPS30;55380;54.156;18.708;2023-01-15T09:54:04;1.3;;1.3;1.2;;;;;;
67700;SPS30;55380;54.156;18.708;2023-01-15T09:56:00;1.8;;1.8;1.7;;;;;;
67700;SPS30;55380;54.156;18.708;2023-01-15T09:58:01;1.8;;1.8;1.7;;;;;;
67700;SPS30;55380;54.156;18.708;2023-01-15T10:00:00;0.9;;0.9;0.9;;;;;;
67700;SPS30;55380;54.156;18.708;2023-01-15T10:02:01;0.8;;0.8;0.8;;;;;;
67700;SPS30;55380;54.156;18.708;2023-01-15T10:04:01;0.8;;0.8;0.8;;;;;;
67700;SPS30;55380;54.156;18.708;2023-01-15T10:06:03;0.8;;0.8;0.8;;;;;;
67700;SPS30;55380;54.156;18.708;2023-01-15T10:08:01;0.9;;0.9;0.8;;;;;;
67700;SPS30;55380;54.156;18.708;2023-01-15T10:10:00;1.0;;1.0;0.9;;;;;;
67700;SPS30;55380;54.156;18.708;2023-01-15T10:12:01;1.3;;1.3;1.3;;;;;;
67700;SPS30;55380;54.156;18.708;2023-01-15T10:14:00;1.2;;1.2;1.1;;;;;;
67700;SPS30;55380;54.156;18.708;2023-01-15T10:16:00;1.0;;1.0;1.0;;;;;;
67700;SPS30;55380;54.156;18.708;2023-01-15T10:18:00;2.6;;2.6;2.4;;;;;;
67700;SPS30;55380;54.156;18.708;2023-01-15T10:20:00;3.4;;3.3;3.0;;;;;;
67700;SPS30;55380;54.156;18.708;2023-01-15T10:22:01;2.4;;2.3;2.1;;;;;;
67700;SPS30;55380;54.156;18.708;2023-01-15T10:24:00;1.8;;1.7;1.6;;;;;;
67700;SPS30;55380;54.156;18.708;2023-01-15T10:26:01;1.5;;1.5;1.3;;;;;;
67700;SPS30;55380;54.156;18.708;2023-01-15T10:28:01;1.9;;1.8;1.6;;;;;;
67700;SPS30;55380;54.156;18.708;2023-01-15T10:30:00;1.9;;1.9;1.7;;;;;;
67700;SPS30;55380;54.156;18.708;2023-01-15T10:32:01;1.9;;1.8;1.7;;;;;;
67700;SPS30;55380;54.156;18.708;2023-01-15T10:34:04;1.9;;1.8;1.6;;;;;;
67700;SPS30;55380;54.156;18.708;2023-01-15T10:36:01;2.1;;2.0;1.8;;;;;;
67700;SPS30;55380;54.156;18.708;2023-01-15T10:38:01;2.3;;2.2;2.0;;;;;;
67700;SPS30;55380;54.156;18.708;2023-01-15T10:40:10;4.2;;4.1;3.7;;;;;;
67700;SPS30;55380;54.156;18.708;2023-01-15T10:42:03;3.8;;3.7;3.5;;;;;;
67700;SPS30;55380;54.156;18.708;2023-01-15T10:44:01;3.5;;3.5;3.3;;;;;;
67700;SPS30;55380;54.156;18.708;2023-01-15T10:46:00;5.2;;5.2;4.9;;;;;;
67700;SPS30;55380;54.156;18.708;2023-01-15T10:48:01;6.9;;6.8;6.2;;;;;;
67700;SPS30;55380;54.156;18.708;2023-01-15T10:50:00;8.5;;8.3;7.6;;;;;;
67700;SPS30;55380;54.156;18.708;2023-01-15T10:52:02;8.5;;8.1;7.3;;;;;;
67700;SPS30;55380;54.156;18.708;2023-01-15T10:54:02;7.1;;6.9;6.3;;;;;;
67700;SPS30;55380;54.156;18.708;2023-01-15T10:56:01;7.2;;6.9;6.2;;;;;;
67700;SPS30;55380;54.156;18.708;2023-01-15T10:58:01;4.9;;4.8;4.4;;;;;;
67700;SPS30;55380;54.156;18.708;2023-01-15T11:00:00;3.3;;3.2;2.9;;;;;;
67700;SPS30;55380;54.156;18.708;2023-01-15T11:02:00;4.3;;4.1;3.7;;;;;;
67700;SPS30;55380;54.156;18.708;2023-01-15T11:04:00;5.1;;4.9;4.4;;;;;;
67700;SPS30;55380;54.156;18.708;2023-01-15T11:06:00;5.7;;5.6;5.2;;;;;;
67700;SPS30;55380;54.156;18.708;2023-01-15T11:08:00;5.4;;5.4;5.1;;;;;;
67700;SPS30;55380;54.156;18.708;2023-01-15T11:10:01;4.7;;4.7;4.5;;;;;;
67700;SPS30;55380;54.156;18.708;2023-01-15T11:12:04;4.3;;4.3;4.0;;;;;;
67700;SPS30;55380;54.156;18.708;2023-01-15T11:14:00;4.3;;4.3;4.0;;;;;;